sensor_id;sensor_type;location;lat;lon;timestamp;P1;durP1;ratioP1;P2;durP2;ratioP2
11123;SDS011;5616;42.692;23.312;2022-10-26T00:01:05;11.53;;;5.37;;
11123;SDS011;5616;42.692;23.312;2022-10-26T00:03:34;10.47;;;5.23;;
11123;SDS011;5616;42.692;23.312;2022-10-26T00:06:02;15.63;;;6.00;;
11123;SDS011;5616;42.692;23.312;2022-10-26T00:08:33;14.70;;;6.40;;
11123;SDS011;5616;42.692;23.312;2022-10-26T00:11:01;10.87;;;5.37;;
11123;SDS011;5616;42.692;23.312;2022-10-26T00:13:28;13.17;;;5.90;;
11123;SDS011;5616;42.692;23.312;2022-10-26T00:15:56;10.77;;;5.27;;
11123;SDS011;5616;42.692;23.312;2022-10-26T00:18:23;10.87;;;5.40;;
11123;SDS011;5616;42.692;23.312;2022-10-26T00:20:50;9.17;;;4.97;;
11123;SDS011;5616;42.692;23.312;2022-10-26T00:23:17;9.97;;;4.97;;
11123;SDS011;5616;42.692;23.312;2022-10-26T00:25:44;20.50;;;5.40;;
11123;SDS011;5616;42.692;23.312;2022-10-26T00:28:18;17.27;;;5.73;;
11123;SDS011;5616;42.692;23.312;2022-10-26T00:30:45;13.07;;;5.23;;
11123;SDS011;5616;42.692;23.312;2022-10-26T00:33:13;9.07;;;4.70;;
11123;SDS011;5616;42.692;23.312;2022-10-26T00:35:40;11.73;;;5.20;;
11123;SDS011;5616;42.692;23.312;2022-10-26T00:38:07;9.40;;;5.37;;
11123;SDS011;5616;42.692;23.312;2022-10-26T00:40:34;8.17;;;4.40;;
11123;SDS011;5616;42.692;23.312;2022-10-26T00:43:01;9.23;;;4.80;;
11123;SDS011;5616;42.692;23.312;2022-10-26T00:45:29;10.23;;;5.03;;
11123;SDS011;5616;42.692;23.312;2022-10-26T00:47:57;9.83;;;5.30;;
11123;SDS011;5616;42.692;23.312;2022-10-26T00:50:29;9.83;;;5.03;;
11123;SDS011;5616;42.692;23.312;2022-10-26T00:52:59;7.93;;;5.07;;
11123;SDS011;5616;42.692;23.312;2022-10-26T00:55:28;9.67;;;5.47;;
11123;SDS011;5616;42.692;23.312;2022-10-26T00:57:59;11.37;;;5.20;;
11123;SDS011;5616;42.692;23.312;2022-10-26T01:00:27;10.80;;;5.60;;
11123;SDS011;5616;42.692;23.312;2022-10-26T01:02:54;10.83;;;5.50;;
11123;SDS011;5616;42.692;23.312;2022-10-26T01:05:25;14.10;;;5.13;;
11123;SDS011;5616;42.692;23.312;2022-10-26T01:07:54;9.77;;;5.60;;
11123;SDS011;5616;42.692;23.312;2022-10-26T01:10:21;11.07;;;5.50;;
11123;SDS011;5616;42.692;23.312;2022-10-26T01:12:48;12.63;;;5.50;;
11123;SDS011;5616;42.692;23.312;2022-10-26T01:15:15;12.87;;;6.47;;
11123;SDS011;5616;42.692;23.312;2022-10-26T01:17:48;10.77;;;5.47;;
11123;SDS011;5616;42.692;23.312;2022-10-26T01:20:32;13.47;;;5.40;;
11123;SDS011;5616;42.692;23.312;2022-10-26T01:23:24;10.10;;;5.40;;
11123;SDS011;5616;42.692;23.312;2022-10-26T01:26:02;10.97;;;5.40;;
11123;SDS011;5616;42.692;23.312;2022-10-26T01:28:53;15.47;;;6.17;;
11123;SDS011;5616;42.692;23.312;2022-10-26T01:31:39;14.90;;;5.43;;
11123;SDS011;5616;42.692;23.312;2022-10-26T01:34:09;11.10;;;5.70;;
11123;SDS011;5616;42.692;23.312;2022-10-26T01:36:44;10.30;;;5.63;;
11123;SDS011;5616;42.692;23.312;2022-10-26T01:39:15;7.33;;;4.90;;
11123;SDS011;5616;42.692;23.312;2022-10-26T01:41:49;10.67;;;5.13;;
11123;SDS011;5616;42.692;23.312;2022-10-26T01:44:20;9.93;;;5.43;;
11123;SDS011;5616;42.692;23.312;2022-10-26T01:46:54;10.07;;;5.60;;
11123;SDS011;5616;42.692;23.312;2022-10-26T01:49:24;11.97;;;5.40;;
11123;SDS011;5616;42.692;23.312;2022-10-26T01:51:53;10.13;;;5.07;;
11123;SDS011;5616;42.692;23.312;2022-10-26T01:54:20;11.70;;;5.13;;
11123;SDS011;5616;42.692;23.312;2022-10-26T01:56:47;12.90;;;5.47;;
11123;SDS011;5616;42.692;23.312;2022-10-26T01:59:18;13.97;;;5.30;;
11123;SDS011;5616;42.692;23.312;2022-10-26T02:04:59;9.83;;;4.57;;
11123;SDS011;5616;42.692;23.312;2022-10-26T02:07:37;6.30;;;4.50;;
11123;SDS011;5616;42.692;23.312;2022-10-26T02:10:12;11.63;;;5.47;;
11123;SDS011;5616;42.692;23.312;2022-10-26T02:12:51;7.87;;;4.90;;
11123;SDS011;5616;42.692;23.312;2022-10-26T02:15:30;11.33;;;5.23;;
11123;SDS011;5616;42.692;23.312;2022-10-26T02:18:04;11.23;;;5.10;;
11123;SDS011;5616;42.692;23.312;2022-10-26T02:20:39;8.47;;;5.07;;
11123;SDS011;5616;42.692;23.312;2022-10-26T02:23:10;10.17;;;5.50;;
11123;SDS011;5616;42.692;23.312;2022-10-26T02:25:39;9.03;;;5.20;;
11123;SDS011;5616;42.692;23.312;2022-10-26T02:28:11;8.33;;;5.00;;
11123;SDS011;5616;42.692;23.312;2022-10-26T02:30:41;8.43;;;5.00;;
11123;SDS011;5616;42.692;23.312;2022-10-26T02:33:13;9.57;;;5.00;;
11123;SDS011;5616;42.692;23.312;2022-10-26T02:35:42;11.27;;;5.47;;
11123;SDS011;5616;42.692;23.312;2022-10-26T02:38:13;11.57;;;4.80;;
11123;SDS011;5616;42.692;23.312;2022-10-26T02:40:43;6.93;;;4.87;;
11123;SDS011;5616;42.692;23.312;2022-10-26T02:43:12;7.93;;;4.90;;
11123;SDS011;5616;42.692;23.312;2022-10-26T02:45:47;12.13;;;5.20;;
11123;SDS011;5616;42.692;23.312;2022-10-26T02:48:17;9.50;;;5.40;;
11123;SDS011;5616;42.692;23.312;2022-10-26T02:50:48;14.23;;;5.37;;
11123;SDS011;5616;42.692;23.312;2022-10-26T02:53:23;8.97;;;5.20;;
11123;SDS011;5616;42.692;23.312;2022-10-26T02:55:54;8.00;;;5.70;;
11123;SDS011;5616;42.692;23.312;2022-10-26T02:58:22;10.87;;;4.70;;
11123;SDS011;5616;42.692;23.312;2022-10-26T03:00:51;7.97;;;4.83;;
11123;SDS011;5616;42.692;23.312;2022-10-26T03:03:20;9.17;;;5.27;;
11123;SDS011;5616;42.692;23.312;2022-10-26T03:05:48;10.23;;;5.93;;
11123;SDS011;5616;42.692;23.312;2022-10-26T03:08:15;12.53;;;6.00;;
11123;SDS011;5616;42.692;23.312;2022-10-26T03:10:42;15.67;;;6.20;;
11123;SDS011;5616;42.692;23.312;2022-10-26T03:13:11;8.00;;;5.50;;
11123;SDS011;5616;42.692;23.312;2022-10-26T03:15:39;12.87;;;6.90;;
11123;SDS011;5616;42.692;23.312;2022-10-26T03:18:06;9.03;;;5.80;;
11123;SDS011;5616;42.692;23.312;2022-10-26T03:20:35;11.27;;;5.73;;
11123;SDS011;5616;42.692;23.312;2022-10-26T03:23:02;12.00;;;6.73;;
11123;SDS011;5616;42.692;23.312;2022-10-26T03:25:28;7.67;;;5.47;;
11123;SDS011;5616;42.692;23.312;2022-10-26T03:27:56;11.63;;;5.83;;
11123;SDS011;5616;42.692;23.312;2022-10-26T03:30:23;11.17;;;6.23;;
11123;SDS011;5616;42.692;23.312;2022-10-26T03:32:50;15.73;;;5.90;;
11123;SDS011;5616;42.692;23.312;2022-10-26T03:35:17;9.33;;;6.33;;
11123;SDS011;5616;42.692;23.312;2022-10-26T03:37:45;12.37;;;5.83;;
11123;SDS011;5616;42.692;23.312;2022-10-26T03:40:12;9.80;;;5.83;;
11123;SDS011;5616;42.692;23.312;2022-10-26T03:42:40;14.50;;;6.40;;
11123;SDS011;5616;42.692;23.312;2022-10-26T03:45:07;10.80;;;6.17;;
11123;SDS011;5616;42.692;23.312;2022-10-26T03:47:39;10.20;;;6.07;;
11123;SDS011;5616;42.692;23.312;2022-10-26T03:50:08;9.10;;;5.80;;
11123;SDS011;5616;42.692;23.312;2022-10-26T03:52:35;12.60;;;6.77;;
11123;SDS011;5616;42.692;23.312;2022-10-26T03:55:04;10.77;;;6.70;;
11123;SDS011;5616;42.692;23.312;2022-10-26T03:57:31;13.10;;;6.17;;
11123;SDS011;5616;42.692;23.312;2022-10-26T03:59:58;11.20;;;5.87;;
11123;SDS011;5616;42.692;23.312;2022-10-26T04:02:25;8.17;;;6.30;;
11123;SDS011;5616;42.692;23.312;2022-10-26T04:04:52;12.73;;;6.50;;
11123;SDS011;5616;42.692;23.312;2022-10-26T04:07:18;10.90;;;5.73;;
11123;SDS011;5616;42.692;23.312;2022-10-26T04:09:45;10.83;;;6.47;;
11123;SDS011;5616;42.692;23.312;2022-10-26T04:12:13;10.27;;;6.60;;
11123;SDS011;5616;42.692;23.312;2022-10-26T04:14:40;9.17;;;6.30;;
11123;SDS011;5616;42.692;23.312;2022-10-26T04:17:07;11.47;;;7.00;;
11123;SDS011;5616;42.692;23.312;2022-10-26T04:19:34;12.63;;;6.63;;
11123;SDS011;5616;42.692;23.312;2022-10-26T04:22:00;18.17;;;7.00;;
11123;SDS011;5616;42.692;23.312;2022-10-26T04:24:27;14.52;;;7.10;;
11123;SDS011;5616;42.692;23.312;2022-10-26T04:26:54;10.47;;;6.33;;
11123;SDS011;5616;42.692;23.312;2022-10-26T04:29:22;13.93;;;6.23;;
11123;SDS011;5616;42.692;23.312;2022-10-26T04:31:49;11.67;;;6.27;;
11123;SDS011;5616;42.692;23.312;2022-10-26T04:34:16;11.23;;;6.00;;
11123;SDS011;5616;42.692;23.312;2022-10-26T04:36:42;8.53;;;5.80;;
11123;SDS011;5616;42.692;23.312;2022-10-26T04:39:09;14.27;;;6.20;;
11123;SDS011;5616;42.692;23.312;2022-10-26T04:41:36;9.83;;;6.47;;
11123;SDS011;5616;42.692;23.312;2022-10-26T04:44:03;12.67;;;6.70;;
11123;SDS011;5616;42.692;23.312;2022-10-26T04:46:31;12.43;;;6.40;;
11123;SDS011;5616;42.692;23.312;2022-10-26T04:48:58;11.60;;;5.83;;
11123;SDS011;5616;42.692;23.312;2022-10-26T04:51:25;10.97;;;6.40;;
11123;SDS011;5616;42.692;23.312;2022-10-26T04:53:52;14.23;;;6.43;;
11123;SDS011;5616;42.692;23.312;2022-10-26T04:56:19;9.50;;;6.03;;
11123;SDS011;5616;42.692;23.312;2022-10-26T04:58:46;10.67;;;6.00;;
11123;SDS011;5616;42.692;23.312;2022-10-26T05:01:13;9.87;;;6.53;;
11123;SDS011;5616;42.692;23.312;2022-10-26T05:03:41;11.77;;;6.33;;
11123;SDS011;5616;42.692;23.312;2022-10-26T05:06:08;11.67;;;6.27;;
11123;SDS011;5616;42.692;23.312;2022-10-26T05:08:34;10.33;;;6.30;;
11123;SDS011;5616;42.692;23.312;2022-10-26T05:11:01;11.43;;;6.30;;
11123;SDS011;5616;42.692;23.312;2022-10-26T05:13:28;10.63;;;6.07;;
11123;SDS011;5616;42.692;23.312;2022-10-26T05:15:55;12.83;;;5.63;;
11123;SDS011;5616;42.692;23.312;2022-10-26T05:18:21;9.00;;;6.10;;
11123;SDS011;5616;42.692;23.312;2022-10-26T05:20:52;9.33;;;5.73;;
11123;SDS011;5616;42.692;23.312;2022-10-26T05:23:18;12.23;;;6.10;;
11123;SDS011;5616;42.692;23.312;2022-10-26T05:25:45;9.37;;;5.80;;
11123;SDS011;5616;42.692;23.312;2022-10-26T05:28:13;10.10;;;6.00;;
11123;SDS011;5616;42.692;23.312;2022-10-26T05:30:42;8.23;;;5.87;;
11123;SDS011;5616;42.692;23.312;2022-10-26T05:33:10;13.47;;;6.20;;
11123;SDS011;5616;42.692;23.312;2022-10-26T05:35:38;13.30;;;6.63;;
11123;SDS011;5616;42.692;23.312;2022-10-26T05:38:07;8.07;;;6.20;;
11123;SDS011;5616;42.692;23.312;2022-10-26T05:40:34;11.83;;;6.07;;
11123;SDS011;5616;42.692;23.312;2022-10-26T05:43:01;6.73;;;5.60;;
11123;SDS011;5616;42.692;23.312;2022-10-26T05:45:28;9.73;;;6.27;;
11123;SDS011;5616;42.692;23.312;2022-10-26T05:47:55;15.30;;;6.53;;
11123;SDS011;5616;42.692;23.312;2022-10-26T05:50:22;8.47;;;6.03;;
11123;SDS011;5616;42.692;23.312;2022-10-26T05:52:49;9.10;;;6.33;;
11123;SDS011;5616;42.692;23.312;2022-10-26T05:55:18;11.93;;;6.53;;
11123;SDS011;5616;42.692;23.312;2022-10-26T05:57:45;10.60;;;6.87;;
11123;SDS011;5616;42.692;23.312;2022-10-26T06:00:16;11.50;;;6.50;;
11123;SDS011;5616;42.692;23.312;2022-10-26T06:02:58;11.33;;;6.43;;
11123;SDS011;5616;42.692;23.312;2022-10-26T06:05:34;9.50;;;6.50;;
11123;SDS011;5616;42.692;23.312;2022-10-26T06:08:07;11.47;;;6.10;;
11123;SDS011;5616;42.692;23.312;2022-10-26T06:10:37;8.53;;;6.07;;
11123;SDS011;5616;42.692;23.312;2022-10-26T06:13:05;11.83;;;6.70;;
11123;SDS011;5616;42.692;23.312;2022-10-26T06:15:32;14.43;;;6.90;;
11123;SDS011;5616;42.692;23.312;2022-10-26T06:18:09;9.80;;;5.60;;
11123;SDS011;5616;42.692;23.312;2022-10-26T06:20:43;10.13;;;6.50;;
11123;SDS011;5616;42.692;23.312;2022-10-26T06:23:23;13.30;;;6.53;;
11123;SDS011;5616;42.692;23.312;2022-10-26T06:26:06;13.77;;;6.40;;
11123;SDS011;5616;42.692;23.312;2022-10-26T06:28:44;9.37;;;5.97;;
11123;SDS011;5616;42.692;23.312;2022-10-26T06:31:18;10.60;;;6.30;;
11123;SDS011;5616;42.692;23.312;2022-10-26T06:33:45;10.20;;;5.73;;
11123;SDS011;5616;42.692;23.312;2022-10-26T06:36:16;11.23;;;5.73;;
11123;SDS011;5616;42.692;23.312;2022-10-26T06:38:47;15.23;;;6.40;;
11123;SDS011;5616;42.692;23.312;2022-10-26T06:41:19;8.97;;;5.50;;
11123;SDS011;5616;42.692;23.312;2022-10-26T06:43:46;7.53;;;5.70;;
11123;SDS011;5616;42.692;23.312;2022-10-26T06:46:18;8.70;;;5.50;;
11123;SDS011;5616;42.692;23.312;2022-10-26T06:48:53;7.47;;;5.40;;
11123;SDS011;5616;42.692;23.312;2022-10-26T06:51:24;10.90;;;5.73;;
11123;SDS011;5616;42.692;23.312;2022-10-26T06:53:56;11.97;;;5.67;;
11123;SDS011;5616;42.692;23.312;2022-10-26T06:56:31;9.03;;;5.60;;
11123;SDS011;5616;42.692;23.312;2022-10-26T06:59:03;7.10;;;5.20;;
11123;SDS011;5616;42.692;23.312;2022-10-26T07:01:34;11.17;;;5.80;;
11123;SDS011;5616;42.692;23.312;2022-10-26T07:04:00;8.97;;;5.63;;
11123;SDS011;5616;42.692;23.312;2022-10-26T07:06:27;10.77;;;5.90;;
11123;SDS011;5616;42.692;23.312;2022-10-26T07:08:54;7.80;;;5.77;;
11123;SDS011;5616;42.692;23.312;2022-10-26T07:11:21;7.80;;;5.43;;
11123;SDS011;5616;42.692;23.312;2022-10-26T07:13:49;8.63;;;5.67;;
11123;SDS011;5616;42.692;23.312;2022-10-26T07:16:16;10.13;;;5.70;;
11123;SDS011;5616;42.692;23.312;2022-10-26T07:18:42;8.23;;;5.73;;
11123;SDS011;5616;42.692;23.312;2022-10-26T07:21:09;9.23;;;5.70;;
11123;SDS011;5616;42.692;23.312;2022-10-26T07:23:36;11.77;;;5.43;;
11123;SDS011;5616;42.692;23.312;2022-10-26T07:26:03;9.83;;;5.27;;
11123;SDS011;5616;42.692;23.312;2022-10-26T07:28:30;9.50;;;5.23;;
11123;SDS011;5616;42.692;23.312;2022-10-26T07:30:58;8.70;;;5.07;;
11123;SDS011;5616;42.692;23.312;2022-10-26T07:33:25;9.60;;;5.57;;
11123;SDS011;5616;42.692;23.312;2022-10-26T07:35:52;15.77;;;6.50;;
11123;SDS011;5616;42.692;23.312;2022-10-26T07:38:20;10.43;;;6.03;;
11123;SDS011;5616;42.692;23.312;2022-10-26T07:40:47;12.70;;;6.20;;
11123;SDS011;5616;42.692;23.312;2022-10-26T07:43:14;13.57;;;6.37;;
11123;SDS011;5616;42.692;23.312;2022-10-26T07:45:41;11.47;;;6.80;;
11123;SDS011;5616;42.692;23.312;2022-10-26T07:48:09;10.87;;;6.73;;
11123;SDS011;5616;42.692;23.312;2022-10-26T07:50:36;8.87;;;6.40;;
11123;SDS011;5616;42.692;23.312;2022-10-26T07:53:03;11.10;;;6.40;;
11123;SDS011;5616;42.692;23.312;2022-10-26T07:55:30;12.40;;;7.10;;
11123;SDS011;5616;42.692;23.312;2022-10-26T07:57:56;8.77;;;6.00;;
11123;SDS011;5616;42.692;23.312;2022-10-26T08:00:23;10.47;;;5.87;;
11123;SDS011;5616;42.692;23.312;2022-10-26T08:02:53;9.93;;;6.13;;
11123;SDS011;5616;42.692;23.312;2022-10-26T08:05:21;12.43;;;5.80;;
11123;SDS011;5616;42.692;23.312;2022-10-26T08:07:48;8.17;;;5.10;;
11123;SDS011;5616;42.692;23.312;2022-10-26T08:10:15;8.37;;;5.27;;
11123;SDS011;5616;42.692;23.312;2022-10-26T08:12:42;7.13;;;5.07;;
11123;SDS011;5616;42.692;23.312;2022-10-26T08:15:09;6.40;;;4.00;;
11123;SDS011;5616;42.692;23.312;2022-10-26T08:17:36;7.90;;;4.27;;
11123;SDS011;5616;42.692;23.312;2022-10-26T08:20:03;8.10;;;4.90;;
11123;SDS011;5616;42.692;23.312;2022-10-26T08:22:32;10.50;;;4.50;;
11123;SDS011;5616;42.692;23.312;2022-10-26T08:24:59;10.50;;;4.20;;
11123;SDS011;5616;42.692;23.312;2022-10-26T08:27:26;7.17;;;4.20;;
11123;SDS011;5616;42.692;23.312;2022-10-26T08:29:53;8.40;;;4.10;;
11123;SDS011;5616;42.692;23.312;2022-10-26T08:32:19;6.97;;;4.33;;
11123;SDS011;5616;42.692;23.312;2022-10-26T08:34:46;8.70;;;3.60;;
11123;SDS011;5616;42.692;23.312;2022-10-26T08:37:13;8.47;;;3.83;;
11123;SDS011;5616;42.692;23.312;2022-10-26T08:39:41;7.70;;;4.23;;
11123;SDS011;5616;42.692;23.312;2022-10-26T08:42:10;5.50;;;3.40;;
11123;SDS011;5616;42.692;23.312;2022-10-26T08:44:41;6.10;;;3.67;;
11123;SDS011;5616;42.692;23.312;2022-10-26T08:47:13;6.27;;;3.80;;
11123;SDS011;5616;42.692;23.312;2022-10-26T08:49:45;6.57;;;4.03;;
11123;SDS011;5616;42.692;23.312;2022-10-26T08:52:16;7.80;;;4.20;;
11123;SDS011;5616;42.692;23.312;2022-10-26T08:54:50;7.80;;;3.73;;
11123;SDS011;5616;42.692;23.312;2022-10-26T08:57:21;7.30;;;3.30;;
11123;SDS011;5616;42.692;23.312;2022-10-26T08:59:54;6.43;;;3.50;;
11123;SDS011;5616;42.692;23.312;2022-10-26T09:02:24;7.43;;;3.90;;
11123;SDS011;5616;42.692;23.312;2022-10-26T09:04:51;5.67;;;3.60;;
11123;SDS011;5616;42.692;23.312;2022-10-26T09:07:24;5.90;;;3.67;;
11123;SDS011;5616;42.692;23.312;2022-10-26T09:10:06;5.93;;;3.60;;
11123;SDS011;5616;42.692;23.312;2022-10-26T09:12:43;6.80;;;3.57;;
11123;SDS011;5616;42.692;23.312;2022-10-26T09:15:21;6.03;;;3.97;;
11123;SDS011;5616;42.692;23.312;2022-10-26T09:17:56;5.13;;;3.20;;
11123;SDS011;5616;42.692;23.312;2022-10-26T09:20:46;4.50;;;3.07;;
11123;SDS011;5616;42.692;23.312;2022-10-26T09:23:36;7.30;;;3.30;;
11123;SDS011;5616;42.692;23.312;2022-10-26T09:26:18;6.73;;;3.23;;
11123;SDS011;5616;42.692;23.312;2022-10-26T09:28:53;4.43;;;3.07;;
11123;SDS011;5616;42.692;23.312;2022-10-26T09:31:22;10.10;;;2.90;;
11123;SDS011;5616;42.692;23.312;2022-10-26T09:33:50;6.93;;;2.80;;
11123;SDS011;5616;42.692;23.312;2022-10-26T09:36:19;4.93;;;3.33;;
11123;SDS011;5616;42.692;23.312;2022-10-26T09:38:49;2.50;;;1.97;;
11123;SDS011;5616;42.692;23.312;2022-10-26T09:41:23;3.10;;;1.97;;
11123;SDS011;5616;42.692;23.312;2022-10-26T09:43:55;6.13;;;2.80;;
11123;SDS011;5616;42.692;23.312;2022-10-26T09:46:27;6.20;;;2.97;;
11123;SDS011;5616;42.692;23.312;2022-10-26T09:48:57;3.83;;;2.67;;
11123;SDS011;5616;42.692;23.312;2022-10-26T09:51:26;4.23;;;2.43;;
11123;SDS011;5616;42.692;23.312;2022-10-26T09:53:54;4.40;;;2.70;;
11123;SDS011;5616;42.692;23.312;2022-10-26T09:56:24;4.07;;;2.43;;
11123;SDS011;5616;42.692;23.312;2022-10-26T09:58:54;5.73;;;2.27;;
11123;SDS011;5616;42.692;23.312;2022-10-26T10:01:29;5.60;;;2.20;;
11123;SDS011;5616;42.692;23.312;2022-10-26T10:04:15;4.43;;;2.50;;
11123;SDS011;5616;42.692;23.312;2022-10-26T10:06:45;5.53;;;2.97;;
11123;SDS011;5616;42.692;23.312;2022-10-26T10:09:13;9.87;;;6.27;;
11123;SDS011;5616;42.692;23.312;2022-10-26T10:11:43;10.50;;;4.10;;
11123;SDS011;5616;42.692;23.312;2022-10-26T10:14:19;8.60;;;4.83;;
11123;SDS011;5616;42.692;23.312;2022-10-26T10:16:56;8.13;;;5.00;;
11123;SDS011;5616;42.692;23.312;2022-10-26T10:19:25;5.47;;;2.53;;
11123;SDS011;5616;42.692;23.312;2022-10-26T10:21:53;2.80;;;2.10;;
11123;SDS011;5616;42.692;23.312;2022-10-26T10:24:26;4.20;;;2.30;;
11123;SDS011;5616;42.692;23.312;2022-10-26T10:26:56;4.07;;;2.23;;
11123;SDS011;5616;42.692;23.312;2022-10-26T10:29:25;6.27;;;2.40;;
11123;SDS011;5616;42.692;23.312;2022-10-26T10:31:56;3.03;;;2.00;;
11123;SDS011;5616;42.692;23.312;2022-10-26T10:34:24;9.30;;;4.27;;
11123;SDS011;5616;42.692;23.312;2022-10-26T10:36:51;4.27;;;2.40;;
11123;SDS011;5616;42.692;23.312;2022-10-26T10:42:16;5.63;;;2.73;;
11123;SDS011;5616;42.692;23.312;2022-10-26T10:44:49;6.73;;;2.50;;
11123;SDS011;5616;42.692;23.312;2022-10-26T10:47:22;5.10;;;2.70;;
11123;SDS011;5616;42.692;23.312;2022-10-26T10:49:51;5.93;;;2.50;;
11123;SDS011;5616;42.692;23.312;2022-10-26T10:52:26;5.03;;;2.10;;
11123;SDS011;5616;42.692;23.312;2022-10-26T10:55:00;6.33;;;2.13;;
11123;SDS011;5616;42.692;23.312;2022-10-26T10:57:47;4.50;;;2.20;;
11123;SDS011;5616;42.692;23.312;2022-10-26T11:00:27;7.20;;;2.50;;
11123;SDS011;5616;42.692;23.312;2022-10-26T11:03:03;3.80;;;2.20;;
11123;SDS011;5616;42.692;23.312;2022-10-26T11:05:51;3.93;;;2.37;;
11123;SDS011;5616;42.692;23.312;2022-10-26T11:08:29;5.10;;;2.37;;
11123;SDS011;5616;42.692;23.312;2022-10-26T11:11:02;3.63;;;1.83;;
11123;SDS011;5616;42.692;23.312;2022-10-26T11:13:36;4.80;;;2.00;;
11123;SDS011;5616;42.692;23.312;2022-10-26T11:16:10;5.87;;;2.20;;
11123;SDS011;5616;42.692;23.312;2022-10-26T11:18:40;3.23;;;1.80;;
11123;SDS011;5616;42.692;23.312;2022-10-26T11:21:14;4.07;;;1.60;;
11123;SDS011;5616;42.692;23.312;2022-10-26T11:23:47;2.90;;;1.50;;
11123;SDS011;5616;42.692;23.312;2022-10-26T11:26:19;3.80;;;1.70;;
11123;SDS011;5616;42.692;23.312;2022-10-26T11:28:53;2.73;;;1.90;;
11123;SDS011;5616;42.692;23.312;2022-10-26T11:31:24;2.80;;;1.70;;
11123;SDS011;5616;42.692;23.312;2022-10-26T11:34:02;2.33;;;1.50;;
11123;SDS011;5616;42.692;23.312;2022-10-26T11:36:39;3.37;;;1.30;;
11123;SDS011;5616;42.692;23.312;2022-10-26T11:39:10;3.50;;;1.70;;
11123;SDS011;5616;42.692;23.312;2022-10-26T11:41:42;3.93;;;1.37;;
11123;SDS011;5616;42.692;23.312;2022-10-26T11:44:18;2.53;;;1.93;;
11123;SDS011;5616;42.692;23.312;2022-10-26T11:46:50;4.70;;;1.70;;
11123;SDS011;5616;42.692;23.312;2022-10-26T11:49:20;1.77;;;1.37;;
11123;SDS011;5616;42.692;23.312;2022-10-26T11:51:51;3.53;;;1.40;;
11123;SDS011;5616;42.692;23.312;2022-10-26T11:54:24;1.93;;;1.30;;
11123;SDS011;5616;42.692;23.312;2022-10-26T11:56:56;2.67;;;1.70;;
11123;SDS011;5616;42.692;23.312;2022-10-26T11:59:27;2.50;;;1.20;;
11123;SDS011;5616;42.692;23.312;2022-10-26T12:01:57;2.03;;;1.53;;
11123;SDS011;5616;42.692;23.312;2022-10-26T12:04:30;3.90;;;1.17;;
11123;SDS011;5616;42.692;23.312;2022-10-26T12:07:01;5.03;;;1.37;;
11123;SDS011;5616;42.692;23.312;2022-10-26T12:09:34;4.33;;;1.47;;
11123;SDS011;5616;42.692;23.312;2022-10-26T12:12:05;1.60;;;1.23;;
11123;SDS011;5616;42.692;23.312;2022-10-26T12:14:39;1.95;;;1.20;;
11123;SDS011;5616;42.692;23.312;2022-10-26T12:17:11;1.87;;;1.10;;
11123;SDS011;5616;42.692;23.312;2022-10-26T12:19:42;2.03;;;1.10;;
11123;SDS011;5616;42.692;23.312;2022-10-26T12:22:15;1.43;;;1.00;;
11123;SDS011;5616;42.692;23.312;2022-10-26T12:24:44;4.77;;;1.30;;
11123;SDS011;5616;42.692;23.312;2022-10-26T12:30:21;3.80;;;1.47;;
11123;SDS011;5616;42.692;23.312;2022-10-26T12:32:54;1.73;;;1.10;;
11123;SDS011;5616;42.692;23.312;2022-10-26T12:35:29;4.33;;;1.30;;
11123;SDS011;5616;42.692;23.312;2022-10-26T12:38:02;3.37;;;1.33;;
11123;SDS011;5616;42.692;23.312;2022-10-26T12:41:19;3.47;;;1.60;;
11123;SDS011;5616;42.692;23.312;2022-10-26T12:43:54;1.70;;;1.20;;
11123;SDS011;5616;42.692;23.312;2022-10-26T12:52:17;1.13;;;1.00;;
11123;SDS011;5616;42.692;23.312;2022-10-26T12:54:48;1.27;;;0.97;;
11123;SDS011;5616;42.692;23.312;2022-10-26T12:57:30;3.37;;;1.37;;
11123;SDS011;5616;42.692;23.312;2022-10-26T13:00:04;2.60;;;1.20;;
11123;SDS011;5616;42.692;23.312;2022-10-26T13:02:36;3.10;;;1.10;;
11123;SDS011;5616;42.692;23.312;2022-10-26T13:05:23;2.03;;;1.77;;
11123;SDS011;5616;42.692;23.312;2022-10-26T13:08:09;5.60;;;1.93;;
11123;SDS011;5616;42.692;23.312;2022-10-26T13:10:39;5.00;;;1.53;;
11123;SDS011;5616;42.692;23.312;2022-10-26T13:13:25;2.77;;;1.60;;
11123;SDS011;5616;42.692;23.312;2022-10-26T13:15:52;3.47;;;1.90;;
11123;SDS011;5616;42.692;23.312;2022-10-26T13:18:22;3.60;;;1.60;;
11123;SDS011;5616;42.692;23.312;2022-10-26T13:20:54;3.90;;;1.60;;
11123;SDS011;5616;42.692;23.312;2022-10-26T13:23:28;2.00;;;1.50;;
11123;SDS011;5616;42.692;23.312;2022-10-26T13:26:00;5.33;;;1.93;;
11123;SDS011;5616;42.692;23.312;2022-10-26T13:28:33;4.17;;;1.67;;
11123;SDS011;5616;42.692;23.312;2022-10-26T13:31:10;1.80;;;1.43;;
11123;SDS011;5616;42.692;23.312;2022-10-26T13:33:45;2.10;;;1.53;;
11123;SDS011;5616;42.692;23.312;2022-10-26T13:36:14;2.23;;;1.40;;
11123;SDS011;5616;42.692;23.312;2022-10-26T13:38:44;4.17;;;1.80;;
11123;SDS011;5616;42.692;23.312;2022-10-26T13:41:20;3.97;;;1.73;;
11123;SDS011;5616;42.692;23.312;2022-10-26T13:43:56;4.30;;;1.47;;
11123;SDS011;5616;42.692;23.312;2022-10-26T13:46:24;2.67;;;1.47;;
11123;SDS011;5616;42.692;23.312;2022-10-26T13:48:56;2.27;;;1.50;;
11123;SDS011;5616;42.692;23.312;2022-10-26T13:51:32;3.40;;;1.30;;
11123;SDS011;5616;42.692;23.312;2022-10-26T13:54:06;2.37;;;1.10;;
11123;SDS011;5616;42.692;23.312;2022-10-26T13:56:47;1.63;;;0.90;;
11123;SDS011;5616;42.692;23.312;2022-10-26T13:59:24;2.50;;;1.07;;
11123;SDS011;5616;42.692;23.312;2022-10-26T14:02:06;1.40;;;1.10;;
11123;SDS011;5616;42.692;23.312;2022-10-26T14:04:42;4.10;;;1.27;;
11123;SDS011;5616;42.692;23.312;2022-10-26T14:07:12;3.73;;;1.10;;
11123;SDS011;5616;42.692;23.312;2022-10-26T14:09:48;2.10;;;1.23;;
11123;SDS011;5616;42.692;23.312;2022-10-26T14:12:19;6.50;;;1.37;;
11123;SDS011;5616;42.692;23.312;2022-10-26T14:14:46;1.93;;;1.40;;
11123;SDS011;5616;42.692;23.312;2022-10-26T14:17:16;5.90;;;1.63;;
11123;SDS011;5616;42.692;23.312;2022-10-26T14:19:46;4.00;;;1.60;;
11123;SDS011;5616;42.692;23.312;2022-10-26T14:22:18;3.37;;;1.43;;
11123;SDS011;5616;42.692;23.312;2022-10-26T14:24:50;3.13;;;1.40;;
11123;SDS011;5616;42.692;23.312;2022-10-26T14:27:19;1.97;;;1.50;;
11123;SDS011;5616;42.692;23.312;2022-10-26T14:29:48;5.13;;;1.73;;
11123;SDS011;5616;42.692;23.312;2022-10-26T14:32:19;2.47;;;1.47;;
11123;SDS011;5616;42.692;23.312;2022-10-26T14:34:48;2.17;;;1.50;;
11123;SDS011;5616;42.692;23.312;2022-10-26T14:37:19;4.80;;;1.77;;
11123;SDS011;5616;42.692;23.312;2022-10-26T14:39:51;3.53;;;1.57;;
11123;SDS011;5616;42.692;23.312;2022-10-26T14:42:26;4.37;;;1.80;;
11123;SDS011;5616;42.692;23.312;2022-10-26T14:44:56;5.43;;;1.60;;
11123;SDS011;5616;42.692;23.312;2022-10-26T14:47:24;2.70;;;1.50;;
11123;SDS011;5616;42.692;23.312;2022-10-26T14:49:55;5.80;;;1.60;;
11123;SDS011;5616;42.692;23.312;2022-10-26T14:52:23;4.53;;;1.80;;
11123;SDS011;5616;42.692;23.312;2022-10-26T14:54:57;2.97;;;1.90;;
11123;SDS011;5616;42.692;23.312;2022-10-26T14:57:29;2.47;;;1.63;;
11123;SDS011;5616;42.692;23.312;2022-10-26T15:00:02;4.83;;;1.53;;
11123;SDS011;5616;42.692;23.312;2022-10-26T15:02:37;2.00;;;1.53;;
11123;SDS011;5616;42.692;23.312;2022-10-26T15:05:16;11.87;;;1.83;;
11123;SDS011;5616;42.692;23.312;2022-10-26T15:07:45;4.00;;;1.90;;
11123;SDS011;5616;42.692;23.312;2022-10-26T15:13:20;4.47;;;1.60;;
11123;SDS011;5616;42.692;23.312;2022-10-26T15:15:50;6.13;;;1.70;;
11123;SDS011;5616;42.692;23.312;2022-10-26T15:18:19;9.27;;;2.20;;
11123;SDS011;5616;42.692;23.312;2022-10-26T15:20:51;4.43;;;2.07;;
11123;SDS011;5616;42.692;23.312;2022-10-26T15:23:20;8.57;;;1.97;;